Check out our new BloomSky Weather System.

Active alerts


No alerts


Thunder radar  blitzortung!


Rain radar more information rain snow radar


Visit our other weather sites:

Template documentation
and downloads

And another site



Weather Underground History page Text

Daily Summary for April 14, 2017 Units:  Metric    English   Both
« Previous Day
Next Day »
Daily Weekly Monthly Yearly Custom
  High: Low: Average:
Temperature: 27.6 °C 16 °C 21.7 °C
Dew Point: 21 °C 15.7 °C 17.9 °C
Humidity: 99 % 56 % 81 %
Wind Speed: 17.7 km/h 0 km/h 3.5 km/h
Wind Gust: 24.1 km/h - -
Wind:- - SE
Pressure: 1020.2 hPa 1016.5 hPa -
Precipitation: 0 mm    
Historical Graphs
 
 
Tabular Data for April 14, 2017
Time Temperature Dew Point Pressure Wind Wind Speed Wind Gust Humidity Rainfall Rate (Hourly)
00:04 18.6 °C 17.3 °C 1019.9 hPa Calm     92 % 0 mm
00:09 18.6 °C 17.3 °C 1019.9 hPa Calm     92 % 0 mm
00:14 18.5 °C 17.2 °C 1019.9 hPa Calm     92 % 0 mm
00:19 18.3 °C 17 °C 1019.9 hPa Calm     92 % 0 mm
00:24 18.2 °C 16.9 °C 1019.9 hPa Calm     92 % 0 mm
00:29 18.1 °C 16.9 °C 1020.2 hPa Calm     93 % 0 mm
00:34 17.9 °C 16.8 °C 1020.2 hPa Calm     93 % 0 mm
00:39 17.8 °C 16.7 °C 1020.2 hPa Calm     93 % 0 mm
00:44 17.8 °C 16.8 °C 1020.2 hPa Calm     94 % 0 mm
00:49 17.7 °C 16.7 °C 1020.2 hPa Calm     94 % 0 mm
00:54 17.7 °C 16.7 °C 1019.9 hPa Calm     94 % 0 mm
00:59 17.7 °C 16.7 °C 1019.9 hPa Calm     94 % 0 mm
01:04 17.6 °C 16.6 °C 1019.9 hPa Calm     94 % 0 mm
01:09 17.5 °C 16.5 °C 1019.9 hPa Calm     94 % 0 mm
01:14 17.4 °C 16.6 °C 1019.9 hPa Calm     95 % 0 mm
01:19 17.4 °C 16.6 °C 1019.9 hPa Calm     95 % 0 mm
01:24 17.4 °C 16.6 °C 1019.9 hPa Calm     95 % 0 mm
01:29 17.3 °C 16.5 °C 1019.9 hPa Calm     95 % 0 mm
01:34 17.3 °C 16.5 °C 1019.9 hPa Calm     95 % 0 mm
01:39 17.3 °C 16.5 °C 1019.9 hPa Calm     95 % 0 mm
01:44 17.2 °C 16.6 °C 1019.9 hPa Calm     96 % 0 mm
01:49 17.2 °C 16.4 °C 1019.9 hPa Calm     95 % 0 mm
01:54 17.1 °C 16.5 °C 1019.9 hPa Calm     96 % 0 mm
01:59 17 °C 16.4 °C 1019.9 hPa Calm     96 % 0 mm
02:04 16.9 °C 16.3 °C 1019.9 hPa Calm     96 % 0 mm
02:09 16.9 °C 16.3 °C 1019.9 hPa Calm     96 % 0 mm
02:14 17 °C 16.4 °C 1019.9 hPa Calm     96 % 0 mm
02:19 16.9 °C 16.3 °C 1019.9 hPa Calm     96 % 0 mm
02:24 16.9 °C 16.3 °C 1019.9 hPa Calm     96 % 0 mm
02:29 16.8 °C 16.2 °C 1019.5 hPa Calm     96 % 0 mm
02:34 16.8 °C 16.2 °C 1019.5 hPa Calm     96 % 0 mm
02:39 16.8 °C 16.2 °C 1019.5 hPa Calm     96 % 0 mm
02:45 16.7 °C 16.1 °C 1019.5 hPa Calm     96 % 0 mm
02:50 16.5 °C 15.9 °C 1019.5 hPa Calm     96 % 0 mm
02:55 16.6 °C 16.1 °C 1019.5 hPa Calm     97 % 0 mm
03:00 16.6 °C 16.1 °C 1019.5 hPa Calm     97 % 0 mm
03:05 16.5 °C 16 °C 1019.5 hPa Calm     97 % 0 mm
03:10 16.4 °C 15.9 °C 1019.5 hPa Calm     97 % 0 mm
03:15 16.4 °C 15.9 °C 1019.5 hPa Calm     97 % 0 mm
03:20 16.3 °C 15.8 °C 1019.2 hPa Calm     97 % 0 mm
03:25 16.3 °C 15.8 °C 1019.2 hPa Calm     97 % 0 mm
03:30 16.2 °C 15.7 °C 1019.2 hPa Calm     97 % 0 mm
03:35 16.3 °C 15.8 °C 1018.8 hPa Calm     97 % 0 mm
03:40 16.3 °C 15.8 °C 1018.8 hPa Calm     97 % 0 mm
03:45 16.3 °C 15.8 °C 1018.8 hPa Calm     97 % 0 mm
03:50 16.3 °C 15.8 °C 1018.8 hPa Calm     97 % 0 mm
03:55 16.4 °C 15.9 °C 1018.8 hPa Calm     97 % 0 mm
04:00 16.5 °C 16 °C 1018.8 hPa Calm     97 % 0 mm
04:05 16.3 °C 15.8 °C 1018.8 hPa Calm     97 % 0 mm
04:10 16.3 °C 15.8 °C 1018.8 hPa Calm     97 % 0 mm
04:15 16.2 °C 15.7 °C 1018.8 hPa Calm     97 % 0 mm
04:20 16.3 °C 15.8 °C 1018.8 hPa Calm     97 % 0 mm
04:25 16.2 °C 15.7 °C 1018.8 hPa Calm     97 % 0 mm
04:30 16.2 °C 15.9 °C 1018.8 hPa Calm     98 % 0 mm
04:35 16.2 °C 15.9 °C 1018.8 hPa Calm     98 % 0 mm
04:40 16.2 °C 15.9 °C 1018.8 hPa Calm     98 % 0 mm
04:45 16.3 °C 16 °C 1018.8 hPa Calm   1.6 km/h 98 % 0 mm
04:50 16.3 °C 16 °C 1018.8 hPa Calm   1.6 km/h 98 % 0 mm
04:55 16.3 °C 16 °C 1018.5 hPa Calm   1.6 km/h 98 % 0 mm
05:00 16.2 °C 15.9 °C 1018.5 hPa Calm     98 % 0 mm
05:05 16.2 °C 15.9 °C 1018.5 hPa Calm     98 % 0 mm
05:10 16.2 °C 15.9 °C 1018.5 hPa Calm     98 % 0 mm
05:16 16.2 °C 15.9 °C 1018.5 hPa Calm     98 % 0 mm
05:21 16.2 °C 15.9 °C 1018.5 hPa Calm     98 % 0 mm
05:26 16.3 °C 16 °C 1018.5 hPa Calm   1.6 km/h 98 % 0 mm
05:31 16.3 °C 16 °C 1018.5 hPa Calm   1.6 km/h 98 % 0 mm
05:36 16.2 °C 15.9 °C 1018.5 hPa Calm   1.6 km/h 98 % 0 mm
05:41 16.2 °C 15.9 °C 1018.2 hPa Calm     98 % 0 mm
05:46 16.2 °C 15.9 °C 1018.5 hPa Calm     98 % 0 mm
05:51 16.2 °C 15.9 °C 1018.5 hPa Calm     98 % 0 mm
05:56 16.1 °C 15.8 °C 1018.5 hPa Calm     98 % 0 mm
06:01 16.2 °C 15.9 °C 1018.5 hPa Calm     98 % 0 mm
06:06 16.3 °C 16 °C 1018.5 hPa Calm   1.6 km/h 98 % 0 mm
06:11 16.2 °C 15.9 °C 1018.5 hPa Calm   1.6 km/h 98 % 0 mm
06:16 16.2 °C 15.9 °C 1018.5 hPa Calm   1.6 km/h 98 % 0 mm
06:21 16.2 °C 15.9 °C 1018.5 hPa Calm     98 % 0 mm
06:26 16.3 °C 16 °C 1018.5 hPa Calm     98 % 0 mm
06:31 16.3 °C 16 °C 1018.5 hPa Calm   1.6 km/h 98 % 0 mm
06:36 16.2 °C 15.9 °C 1018.5 hPa Calm   1.6 km/h 98 % 0 mm
06:41 16.2 °C 15.9 °C 1018.5 hPa Calm   1.6 km/h 98 % 0 mm
06:46 16.1 °C 15.8 °C 1018.5 hPa Calm     98 % 0 mm
06:51 16 °C 15.7 °C 1018.5 hPa Calm     98 % 0 mm
06:56 16.1 °C 15.8 °C 1018.8 hPa Calm     98 % 0 mm
07:01 16.1 °C 15.9 °C 1018.8 hPa Calm   1.6 km/h 99 % 0 mm
07:06 16.1 °C 15.9 °C 1018.8 hPa Calm   1.6 km/h 99 % 0 mm
07:11 16.2 °C 16 °C 1018.8 hPa Calm   1.6 km/h 99 % 0 mm
07:16 16.3 °C 16.1 °C 1018.8 hPa Calm   1.6 km/h 99 % 0 mm
07:21 16.5 °C 16.3 °C 1018.8 hPa Calm   1.6 km/h 99 % 0 mm
07:26 16.7 °C 16.5 °C 1018.8 hPa Calm   1.6 km/h 99 % 0 mm
07:31 16.9 °C 16.7 °C 1018.8 hPa Calm   4.8 km/h 99 % 0 mm
07:36 17.1 °C 16.9 °C 1018.8 hPa East 1.6 km/h 4.8 km/h 99 % 0 mm
07:41 17.3 °C 17.1 °C 1018.8 hPa East 1.6 km/h 4.8 km/h 99 % 0 mm
07:46 17.4 °C 17.2 °C 1018.8 hPa Calm   3.2 km/h 99 % 0 mm
07:51 17.5 °C 17.3 °C 1019.2 hPa Calm   3.2 km/h 99 % 0 mm
07:56 17.6 °C 17.4 °C 1019.2 hPa East 1.6 km/h 4.8 km/h 99 % 0 mm
08:01 17.7 °C 17.5 °C 1019.2 hPa Calm   4.8 km/h 99 % 0 mm
08:06 17.8 °C 17.6 °C 1019.2 hPa Calm   4.8 km/h 99 % 0 mm
08:11 17.9 °C 17.7 °C 1019.2 hPa ENE 3.2 km/h 6.4 km/h 99 % 0 mm
08:16 18.1 °C 17.9 °C 1019.2 hPa SSE 1.6 km/h 6.4 km/h 99 % 0 mm
08:21 18.2 °C 18 °C 1019.2 hPa Calm   6.4 km/h 99 % 0 mm
08:26 18.6 °C 18.4 °C 1019.2 hPa Calm   6.4 km/h 99 % 0 mm
08:31 18.7 °C 18.5 °C 1019.2 hPa North 3.2 km/h 6.4 km/h 99 % 0 mm
08:37 18.9 °C 18.7 °C 1019.2 hPa NE 1.6 km/h 8 km/h 99 % 0 mm
08:42 19.2 °C 19 °C 1019.2 hPa Calm   8 km/h 99 % 0 mm
08:47 19.4 °C 19.2 °C 1019.2 hPa ESE 3.2 km/h 8 km/h 99 % 0 mm
08:52 19.6 °C 19.4 °C 1019.5 hPa Calm   6.4 km/h 99 % 0 mm
08:56 19.9 °C 19.7 °C 1019.5 hPa ESE 1.6 km/h 8 km/h 99 % 0 mm
09:02 20.2 °C 19.9 °C 1019.5 hPa Calm   8 km/h 98 % 0 mm
09:07 20.6 °C 20.3 °C 1019.5 hPa SE 3.2 km/h 8 km/h 98 % 0 mm
09:12 20.7 °C 20.2 °C 1019.5 hPa Calm   9.7 km/h 97 % 0 mm
09:17 21.1 °C 20.6 °C 1019.5 hPa ESE 3.2 km/h 9.7 km/h 97 % 0 mm
09:22 21.4 °C 20.6 °C 1019.5 hPa SSE 1.6 km/h 9.7 km/h 95 % 0 mm
09:27 22 °C 21 °C 1019.5 hPa North 3.2 km/h 9.7 km/h 94 % 0 mm
09:32 22.2 °C 20.7 °C 1019.5 hPa SE 8 km/h 14.5 km/h 91 % 0 mm
09:37 22.4 °C 20.5 °C 1019.2 hPa SE 1.6 km/h 16.1 km/h 89 % 0 mm
09:42 22.6 °C 20.1 °C 1019.2 hPa SE 6.4 km/h 16.1 km/h 86 % 0 mm
09:47 22.7 °C 20.2 °C 1019.5 hPa SE 1.6 km/h 17.7 km/h 86 % 0 mm
09:52 22.9 °C 20.2 °C 1019.2 hPa SSE 3.2 km/h 17.7 km/h 85 % 0 mm
09:57 23.1 °C 20.2 °C 1019.2 hPa SE 1.6 km/h 17.7 km/h 84 % 0 mm
10:02 23.3 °C 20.2 °C 1019.2 hPa SSW 6.4 km/h 12.9 km/h 83 % 0 mm
10:07 23.7 °C 20.6 °C 1019.2 hPa ESE 1.6 km/h 12.9 km/h 83 % 0 mm
10:12 23.8 °C 20.3 °C 1019.2 hPa WSW 8 km/h 12.9 km/h 81 % 0 mm
10:17 23.7 °C 19.6 °C 1019.5 hPa SE 9.7 km/h 19.3 km/h 78 % 0 mm
10:22 23.7 °C 19.6 °C 1019.5 hPa SE 3.2 km/h 19.3 km/h 78 % 0 mm
10:27 24.2 °C 20.1 °C 1019.5 hPa ESE 3.2 km/h 19.3 km/h 78 % 0 mm
10:32 24.1 °C 19.6 °C 1019.5 hPa ESE 9.7 km/h 16.1 km/h 76 % 0 mm
10:33 24 °C 19.5 °C 1019.5 hPa SE 6.4 km/h 16.1 km/h 76 % 0 mm
10:38 24.1 °C 20 °C 1019.5 hPa ESE 4.8 km/h 16.1 km/h 78 % 0 mm
10:43 24.1 °C 19.6 °C 1019.5 hPa ESE 11.3 km/h 16.1 km/h 76 % 0 mm
10:48 23.9 °C 19.2 °C 1019.5 hPa SE 6.4 km/h 17.7 km/h 75 % 0 mm
10:53 24.1 °C 20 °C 1019.5 hPa South 8 km/h 17.7 km/h 78 % 0 mm
10:58 24.7 °C 19.8 °C 1019.5 hPa SE 3.2 km/h 17.7 km/h 74 % 0 mm
11:03 25.1 °C 19.9 °C 1019.5 hPa SSE 6.4 km/h 14.5 km/h 73 % 0 mm
11:08 24.9 °C 19.5 °C 1019.5 hPa SE 3.2 km/h 16.1 km/h 72 % 0 mm
11:13 25 °C 19.6 °C 1019.5 hPa SW 6.4 km/h 16.1 km/h 72 % 0 mm
11:18 25.3 °C 19.2 °C 1019.5 hPa SE 4.8 km/h 16.1 km/h 69 % 0 mm
11:23 25.4 °C 19.5 °C 1019.5 hPa ESE 4.8 km/h 16.1 km/h 70 % 0 mm
11:28 25.4 °C 19.1 °C 1019.5 hPa SE 9.7 km/h 16.1 km/h 68 % 0 mm
11:33 25.4 °C 19.5 °C 1019.5 hPa SE 9.7 km/h 16.1 km/h 70 % 0 mm
11:38 25.6 °C 19.5 °C 1019.5 hPa ENE 3.2 km/h 19.3 km/h 69 % 0 mm
11:43 25.7 °C 19.1 °C 1019.5 hPa SE 12.9 km/h 19.3 km/h 67 % 0 mm
11:48 25.2 °C 18.9 °C 1019.5 hPa ESE 8 km/h 19.3 km/h 68 % 0 mm
11:53 25 °C 18.9 °C 1019.5 hPa SSE 6.4 km/h 17.7 km/h 69 % 0 mm
11:59 24.8 °C 18.7 °C 1019.2 hPa SE 3.2 km/h 16.1 km/h 69 % 0 mm
12:04 25.2 °C 19.6 °C 1019.2 hPa SE 9.7 km/h 12.9 km/h 71 % 0 mm
12:09 25.6 °C 19.3 °C 1019.2 hPa SSE 11.3 km/h 17.7 km/h 68 % 0 mm
12:14 25.8 °C 19 °C 1019.2 hPa SSW 12.9 km/h 17.7 km/h 66 % 0 mm
12:19 26 °C 19.2 °C 1018.8 hPa SE 9.7 km/h 17.7 km/h 66 % 0 mm
12:24 26.1 °C 19.2 °C 1018.8 hPa NNE 8 km/h 17.7 km/h 66 % 0 mm
12:29 26.2 °C 18.6 °C 1018.8 hPa SSE 9.7 km/h 17.7 km/h 63 % 0 mm
12:34 26.4 °C 19.3 °C 1018.8 hPa SE 6.4 km/h 17.7 km/h 65 % 0 mm
12:39 26.4 °C 18.3 °C 1018.8 hPa SE 6.4 km/h 16.1 km/h 61 % 0 mm
12:44 26.4 °C 18.8 °C 1018.8 hPa ESE 6.4 km/h 19.3 km/h 63 % 0 mm
12:49 26.6 °C 18.5 °C 1018.8 hPa ESE 6.4 km/h 19.3 km/h 61 % 0 mm
12:54 26.4 °C 18.8 °C 1018.8 hPa ESE 3.2 km/h 19.3 km/h 63 % 0 mm
12:59 26.5 °C 18.9 °C 1018.8 hPa SE 3.2 km/h 14.5 km/h 63 % 0 mm
13:04 26.6 °C 18.5 °C 1018.5 hPa ESE 6.4 km/h 16.1 km/h 61 % 0 mm
13:09 26.4 °C 18.5 °C 1018.5 hPa East 8 km/h 16.1 km/h 62 % 0 mm
13:14 26.2 °C 18.6 °C 1018.5 hPa SSW 6.4 km/h 16.1 km/h 63 % 0 mm
13:19 26 °C 18.4 °C 1018.5 hPa SSE 3.2 km/h 16.1 km/h 63 % 0 mm
13:24 26.1 °C 18.2 °C 1018.5 hPa ENE 11.3 km/h 14.5 km/h 62 % 0 mm
13:29 26 °C 18.4 °C 1018.2 hPa East 6.4 km/h 14.5 km/h 63 % 0 mm
13:34 25.9 °C 18.3 °C 1018.2 hPa ESE 4.8 km/h 14.5 km/h 63 % 0 mm
13:39 25.9 °C 18.6 °C 1018.2 hPa East 3.2 km/h 17.7 km/h 64 % 0 mm
13:44 26.1 °C 18.2 °C 1018.2 hPa NE 9.7 km/h 17.7 km/h 62 % 0 mm
13:49 26.6 °C 18.7 °C 1017.8 hPa ENE 4.8 km/h 17.7 km/h 62 % 0 mm
13:54 26.7 °C 18.3 °C 1017.8 hPa SE 12.9 km/h 16.1 km/h 60 % 0 mm
13:59 27 °C 18.6 °C 1017.8 hPa East 8 km/h 19.3 km/h 60 % 0 mm
14:00 27 °C 18.6 °C 1017.8 hPa ESE 3.2 km/h 19.3 km/h 60 % 0 mm
14:05 27.2 °C 18.8 °C 1017.8 hPa SSE 4.8 km/h 19.3 km/h 60 % 0 mm
14:10 27.2 °C 18.5 °C 1017.8 hPa ESE 8 km/h 19.3 km/h 59 % 0 mm
14:15 27.3 °C 18.3 °C 1017.8 hPa East 8 km/h 24.1 km/h 58 % 0 mm
14:20 27.2 °C 18.2 °C 1017.8 hPa SSE 9.7 km/h 24.1 km/h 58 % 0 mm
14:25 27 °C 18 °C 1017.8 hPa East 16.1 km/h 24.1 km/h 58 % 0 mm
14:30 27.3 °C 18.3 °C 1017.8 hPa ESE 8 km/h 22.5 km/h 58 % 0 mm
14:35 27.4 °C 18.4 °C 1017.5 hPa ESE 4.8 km/h 22.5 km/h 58 % 0 mm
14:40 27.6 °C 18.3 °C 1017.5 hPa SE 12.9 km/h 22.5 km/h 57 % 0 mm
14:45 27.2 °C 17.7 °C 1017.5 hPa SSE 8 km/h 19.3 km/h 56 % 0 mm
14:50 27.1 °C 17.6 °C 1017.5 hPa SE 6.4 km/h 19.3 km/h 56 % 0 mm
14:55 27.2 °C 18.2 °C 1017.5 hPa SSE 4.8 km/h 14.5 km/h 58 % 0 mm
15:00 27.2 °C 17.9 °C 1017.5 hPa SSE 8 km/h 17.7 km/h 57 % 0 mm
15:05 26.9 °C 17.4 °C 1017.5 hPa SSE 8 km/h 17.7 km/h 56 % 0 mm
15:10 26.7 °C 17.7 °C 1017.5 hPa ESE 12.9 km/h 17.7 km/h 58 % 0 mm
15:15 26.7 °C 17.5 °C 1017.5 hPa SE 8 km/h 14.5 km/h 57 % 0 mm
15:20 26.4 °C 16.9 °C 1017.2 hPa South 6.4 km/h 17.7 km/h 56 % 0 mm
15:25 26.3 °C 17.1 °C 1017.2 hPa ESE 6.4 km/h 17.7 km/h 57 % 0 mm
15:30 26.4 °C 17.2 °C 1017.2 hPa SE 8 km/h 17.7 km/h 57 % 0 mm
15:35 26.6 °C 17.7 °C 1017.2 hPa SE 4.8 km/h 16.1 km/h 58 % 0 mm
15:40 26.9 °C 17.7 °C 1017.2 hPa East 6.4 km/h 14.5 km/h 57 % 0 mm
15:45 27.3 °C 17.8 °C 1017.2 hPa ESE 4.8 km/h 14.5 km/h 56 % 0 mm
15:50 27.3 °C 18 °C 1017.2 hPa East 6.4 km/h 14.5 km/h 57 % 0 mm
15:55 27.2 °C 17.9 °C 1017.2 hPa SSE 8 km/h 14.5 km/h 57 % 0 mm
16:00 26.9 °C 17.9 °C 1017.2 hPa SE 4.8 km/h 14.5 km/h 58 % 0 mm
16:05 26.7 °C 17.7 °C 1016.8 hPa ESE 4.8 km/h 14.5 km/h 58 % 0 mm
16:10 26.7 °C 18 °C 1016.8 hPa SSE 9.7 km/h 14.5 km/h 59 % 0 mm
16:15 26.8 °C 18.1 °C 1016.8 hPa SSE 14.5 km/h 14.5 km/h 59 % 0 mm
16:20 27 °C 18.3 °C 1016.8 hPa East 14.5 km/h 17.7 km/h 59 % 0 mm
16:25 26.9 °C 17.9 °C 1016.8 hPa ENE 4.8 km/h 17.7 km/h 58 % 0 mm
16:30 27.1 °C 18.4 °C 1016.8 hPa South 6.4 km/h 17.7 km/h 59 % 0 mm
16:35 27.2 °C 17.9 °C 1016.5 hPa SSE 9.7 km/h 17.7 km/h 57 % 0 mm
16:40 26.9 °C 18.2 °C 1016.5 hPa ESE 11.3 km/h 17.7 km/h 59 % 0 mm
16:45 26.8 °C 18.1 °C 1016.8 hPa South 9.7 km/h 17.7 km/h 59 % 0 mm
16:50 26.6 °C 18.2 °C 1016.8 hPa ESE 17.7 km/h 17.7 km/h 60 % 0 mm
16:55 26.4 °C 18 °C 1016.8 hPa SE 4.8 km/h 17.7 km/h 60 % 0 mm
17:00 26.4 °C 18.3 °C 1016.8 hPa SE 4.8 km/h 17.7 km/h 61 % 0 mm
17:05 26.3 °C 18.4 °C 1016.8 hPa SSW 6.4 km/h 17.7 km/h 62 % 0 mm
17:10 26.5 °C 18.4 °C 1016.8 hPa ESE 4.8 km/h 14.5 km/h 61 % 0 mm
17:15 26.4 °C 18.3 °C 1016.8 hPa SE 8 km/h 14.5 km/h 61 % 0 mm
17:20 26.4 °C 18.8 °C 1016.8 hPa SSE 6.4 km/h 14.5 km/h 63 % 0 mm
17:25 26.4 °C 18.8 °C 1016.8 hPa ESE 4.8 km/h 14.5 km/h 63 % 0 mm
17:31 26.3 °C 18.4 °C 1016.8 hPa SSE 8 km/h 17.7 km/h 62 % 0 mm
17:35 26.3 °C 18.4 °C 1016.8 hPa East 9.7 km/h 17.7 km/h 62 % 0 mm
17:40 26.2 °C 18.8 °C 1016.8 hPa ESE 6.4 km/h 17.7 km/h 64 % 0 mm
17:46 26.2 °C 19.1 °C 1016.8 hPa ESE 9.7 km/h 14.5 km/h 65 % 0 mm
17:51 25.8 °C 18.7 °C 1016.8 hPa SSE 8 km/h 20.9 km/h 65 % 0 mm
17:55 25.6 °C 18.5 °C 1016.8 hPa SSE 8 km/h 20.9 km/h 65 % 0 mm
18:01 25.6 °C 18.8 °C 1016.8 hPa SSE 6.4 km/h 20.9 km/h 66 % 0 mm
18:06 25.6 °C 19 °C 1016.8 hPa East 9.7 km/h 17.7 km/h 67 % 0 mm
18:10 25.6 °C 18.8 °C 1016.8 hPa ESE 6.4 km/h 19.3 km/h 66 % 0 mm
18:15 25.7 °C 19.1 °C 1016.8 hPa SE 4.8 km/h 19.3 km/h 67 % 0 mm
18:20 25.7 °C 19.1 °C 1016.8 hPa SE 3.2 km/h 19.3 km/h 67 % 0 mm
18:26 25.5 °C 18.9 °C 1016.8 hPa SE 3.2 km/h 12.9 km/h 67 % 0 mm
18:31 25.4 °C 18.8 °C 1016.8 hPa SE 3.2 km/h 11.3 km/h 67 % 0 mm
18:35 25.3 °C 18.7 °C 1016.8 hPa ENE 8 km/h 12.9 km/h 67 % 0 mm
18:40 25.2 °C 18.9 °C 1016.8 hPa SE 8 km/h 12.9 km/h 68 % 0 mm
18:46 25.1 °C 18.8 °C 1016.5 hPa SE 3.2 km/h 19.3 km/h 68 % 0 mm
18:51 25 °C 18.9 °C 1016.8 hPa ESE 8 km/h 19.3 km/h 69 % 0 mm
18:56 24.9 °C 18.6 °C 1016.8 hPa East 4.8 km/h 19.3 km/h 68 % 0 mm
19:01 24.8 °C 18.7 °C 1016.5 hPa SSE 4.8 km/h 17.7 km/h 69 % 0 mm
19:06 24.7 °C 18.4 °C 1016.5 hPa East 8 km/h 16.1 km/h 68 % 0 mm
19:11 24.6 °C 18.5 °C 1016.5 hPa South 3.2 km/h 16.1 km/h 69 % 0 mm
19:16 24.5 °C 18.7 °C 1016.5 hPa SE 1.6 km/h 16.1 km/h 70 % 0 mm
19:18 24.5 °C 18.7 °C 1016.5 hPa SSW 1.6 km/h 16.1 km/h 70 % 0 mm
19:23 24.4 °C 18.6 °C 1016.8 hPa ESE 3.2 km/h 16.1 km/h 70 % 0 mm
19:28 24.3 °C 18.7 °C 1016.5 hPa SE 3.2 km/h 9.7 km/h 71 % 0 mm
19:33 24.3 °C 18.7 °C 1016.8 hPa East 6.4 km/h 11.3 km/h 71 % 0 mm
19:38 24.2 °C 18.8 °C 1016.8 hPa SSE 4.8 km/h 11.3 km/h 72 % 0 mm
19:43 24.1 °C 18.7 °C 1016.8 hPa South 3.2 km/h 16.1 km/h 72 % 0 mm
19:48 23.9 °C 18.8 °C 1016.8 hPa ESE 8 km/h 20.9 km/h 73 % 0 mm
19:53 23.9 °C 18.8 °C 1016.8 hPa East 3.2 km/h 20.9 km/h 73 % 0 mm
19:58 23.8 °C 18.9 °C 1016.8 hPa East 6.4 km/h 20.9 km/h 74 % 0 mm
20:03 23.7 °C 18.8 °C 1016.8 hPa SE 3.2 km/h 12.9 km/h 74 % 0 mm
20:08 23.5 °C 18.8 °C 1016.8 hPa SE 3.2 km/h 11.3 km/h 75 % 0 mm
20:14 23.4 °C 18.7 °C 1016.8 hPa NE 9.7 km/h 11.3 km/h 75 % 0 mm
20:19 23.3 °C 18.8 °C 1016.8 hPa SSE 6.4 km/h 12.9 km/h 76 % 0 mm
20:24 23.2 °C 18.9 °C 1016.8 hPa SE 6.4 km/h 12.9 km/h 77 % 0 mm
20:29 23.1 °C 18.8 °C 1016.8 hPa Calm   12.9 km/h 77 % 0 mm
20:34 22.9 °C 18.9 °C 1016.8 hPa East 3.2 km/h 11.3 km/h 78 % 0 mm
20:39 22.8 °C 18.8 °C 1017.2 hPa SSW 3.2 km/h 12.9 km/h 78 % 0 mm
20:44 22.7 °C 18.9 °C 1016.8 hPa ESE 6.4 km/h 12.9 km/h 79 % 0 mm
20:49 22.7 °C 18.9 °C 1017.2 hPa ESE 6.4 km/h 12.9 km/h 79 % 0 mm
20:54 22.6 °C 19 °C 1016.8 hPa SE 3.2 km/h 14.5 km/h 80 % 0 mm
20:59 22.6 °C 19 °C 1016.8 hPa ESE 3.2 km/h 14.5 km/h 80 % 0 mm
21:04 22.4 °C 18.8 °C 1017.2 hPa ESE 9.7 km/h 14.5 km/h 80 % 0 mm
21:09 22.4 °C 19 °C 1017.2 hPa SE 4.8 km/h 14.5 km/h 81 % 0 mm
21:14 22.3 °C 18.9 °C 1017.2 hPa SE 3.2 km/h 14.5 km/h 81 % 0 mm
21:19 22.3 °C 18.9 °C 1017.2 hPa SE 3.2 km/h 14.5 km/h 81 % 0 mm
21:24 22.2 °C 19 °C 1017.2 hPa East 4.8 km/h 11.3 km/h 82 % 0 mm
21:29 22.1 °C 18.9 °C 1017.2 hPa ESE 4.8 km/h 11.3 km/h 82 % 0 mm
21:34 22.1 °C 19.1 °C 1017.2 hPa ESE 6.4 km/h 11.3 km/h 83 % 0 mm
21:39 22 °C 19 °C 1017.2 hPa SE 4.8 km/h 8 km/h 83 % 0 mm
21:44 21.9 °C 19.1 °C 1017.2 hPa SE 1.6 km/h 11.3 km/h 84 % 0 mm
21:49 21.8 °C 19 °C 1017.2 hPa East 3.2 km/h 11.3 km/h 84 % 0 mm
21:54 21.8 °C 19.2 °C 1017.2 hPa ESE 1.6 km/h 11.3 km/h 85 % 0 mm
21:59 21.7 °C 19.1 °C 1017.5 hPa Calm   9.7 km/h 85 % 0 mm
22:04 21.7 °C 19.1 °C 1017.5 hPa Calm   6.4 km/h 85 % 0 mm
22:09 21.6 °C 19.2 °C 1017.5 hPa SE 1.6 km/h 6.4 km/h 86 % 0 mm
22:14 21.5 °C 19.1 °C 1017.5 hPa Calm   6.4 km/h 86 % 0 mm
22:19 21.4 °C 19.1 °C 1017.5 hPa SE 3.2 km/h 6.4 km/h 87 % 0 mm
22:24 21.3 °C 19 °C 1017.5 hPa East 3.2 km/h 6.4 km/h 87 % 0 mm
22:30 21.3 °C 19 °C 1017.5 hPa ESE 3.2 km/h 6.4 km/h 87 % 0 mm
22:35 21.3 °C 19.2 °C 1017.5 hPa SE 1.6 km/h 4.8 km/h 88 % 0 mm
22:40 21.2 °C 19.1 °C 1017.5 hPa Calm   4.8 km/h 88 % 0 mm
22:45 21.1 °C 19 °C 1017.5 hPa Calm   4.8 km/h 88 % 0 mm
22:50 21 °C 18.9 °C 1017.5 hPa Calm   4.8 km/h 88 % 0 mm
22:55 20.9 °C 19 °C 1017.5 hPa SE 1.6 km/h 4.8 km/h 89 % 0 mm
23:00 20.9 °C 19 °C 1017.5 hPa ESE 1.6 km/h 3.2 km/h 89 % 0 mm
23:05 20.8 °C 18.9 °C 1017.5 hPa SE 1.6 km/h 3.2 km/h 89 % 0 mm
23:10 20.8 °C 18.9 °C 1017.5 hPa Calm   4.8 km/h 89 % 0 mm
23:15 20.7 °C 18.8 °C 1017.5 hPa ESE 1.6 km/h 4.8 km/h 89 % 0 mm
23:20 20.7 °C 19 °C 1017.2 hPa Calm   4.8 km/h 90 % 0 mm
23:25 20.6 °C 18.9 °C 1017.2 hPa Calm   3.2 km/h 90 % 0 mm
23:30 20.5 °C 18.8 °C 1017.2 hPa Calm   3.2 km/h 90 % 0 mm
23:35 20.4 °C 18.7 °C 1017.2 hPa SE 1.6 km/h 3.2 km/h 90 % 0 mm
23:40 20.4 °C 18.9 °C 1017.2 hPa SE 1.6 km/h 3.2 km/h 91 % 0 mm
23:45 20.3 °C 18.8 °C 1017.2 hPa Calm   3.2 km/h 91 % 0 mm
23:50 20.3 °C 18.8 °C 1017.2 hPa Calm   3.2 km/h 91 % 0 mm
23:55 20.2 °C 18.7 °C 1017.5 hPa Calm   1.6 km/h 91 % 0 mm
Spring, Texas: Villages of Bridgestone
Compliments of Weather Underground - 2.75 mb

Script developed by  Jim McMurry - jmcmurry@mwt.net Adapted for the template by  Wim van der Kuil - Leuven-Template.eu

You find our weather info also at:

UK Metoffice

WeatherCloud

Weather Underground

Mid-South Weather Network

AWEKAS

Citizen Weather Observer Program (CWOP)

HAMweather, WeatherForYou, PWS Weather

Equipment we use:

Weather-station
Davis Vantage Vue

Weather-program
Meteohub

Weather-server
Debian 7.9 x86 (Guest)

Provider
DreamHost

Davis Vantage Vue

Meteohub

Debian 7.9 x86 (Guest)

DreamHost